createdAt,value
2017-06-11T00:00:59.503Z,18.30
2017-06-11T00:03:26.990Z,18.30
2017-06-11T00:05:54.970Z,18.20
2017-06-11T00:08:22.932Z,18.20
2017-06-11T00:10:51.350Z,18.20
2017-06-11T00:13:18.854Z,18.20
2017-06-11T00:15:46.341Z,18.10
2017-06-11T00:18:13.851Z,18.10
2017-06-11T00:20:41.387Z,18.10
2017-06-11T00:23:08.949Z,18.00
2017-06-11T00:25:36.909Z,17.90
2017-06-11T00:28:04.836Z,17.90
2017-06-11T00:30:32.354Z,17.90
2017-06-11T00:33:00.291Z,17.80
2017-06-11T00:35:27.840Z,17.80
2017-06-11T00:37:55.688Z,17.80
2017-06-11T00:40:23.209Z,17.70
2017-06-11T00:42:50.737Z,17.70
2017-06-11T00:45:18.240Z,17.60
2017-06-11T00:47:46.102Z,17.60
2017-06-11T00:50:13.681Z,17.60
2017-06-11T00:52:41.264Z,17.60
2017-06-11T00:55:08.786Z,17.60
2017-06-11T00:57:36.341Z,17.50
2017-06-11T01:00:03.875Z,17.50
2017-06-11T01:02:31.418Z,17.40
2017-06-11T01:04:58.929Z,17.30
2017-06-11T01:07:26.424Z,17.30
2017-06-11T01:09:53.964Z,17.30
2017-06-11T01:12:21.493Z,17.30
2017-06-11T01:14:48.993Z,17.30
2017-06-11T01:17:16.501Z,17.20
2017-06-11T01:19:44.028Z,17.20
2017-06-11T01:22:11.616Z,17.20
2017-06-11T01:24:39.136Z,17.10
2017-06-11T01:27:06.679Z,17.10
2017-06-11T01:29:34.173Z,17.10
2017-06-11T01:32:01.686Z,17.00
2017-06-11T01:34:29.157Z,16.90
2017-06-11T01:36:57.327Z,16.90
2017-06-11T01:39:24.853Z,16.90
2017-06-11T01:41:52.349Z,16.90
2017-06-11T01:44:19.840Z,16.90
2017-06-11T01:46:47.386Z,16.90
2017-06-11T01:49:14.944Z,16.90
2017-06-11T01:51:42.452Z,16.90
2017-06-11T01:54:09.944Z,16.90
2017-06-11T01:56:37.436Z,16.80
2017-06-11T01:59:05.947Z,16.80
2017-06-11T02:01:33.474Z,16.80
2017-06-11T02:04:01.443Z,16.80
2017-06-11T02:06:29.063Z,16.80
2017-06-11T02:08:56.532Z,16.80
2017-06-11T02:11:23.990Z,16.80
2017-06-11T02:13:51.468Z,16.80
2017-06-11T02:16:18.938Z,16.80
2017-06-11T02:18:46.798Z,16.70
2017-06-11T02:21:15.240Z,16.70
2017-06-11T02:23:42.721Z,16.70
2017-06-11T02:26:10.152Z,16.70
2017-06-11T02:28:37.640Z,16.70
2017-06-11T02:31:05.108Z,16.70
2017-06-11T02:33:32.566Z,16.60
2017-06-11T02:36:00.041Z,16.60
2017-06-11T02:38:27.498Z,16.60
2017-06-11T02:40:54.964Z,16.60
2017-06-11T02:43:22.540Z,16.60
2017-06-11T02:45:50.090Z,16.50
2017-06-11T02:48:17.544Z,16.50
2017-06-11T02:50:45.025Z,16.50
2017-06-11T02:53:12.484Z,16.50
2017-06-11T02:55:39.943Z,16.40
2017-06-11T02:58:07.420Z,16.40
2017-06-11T03:00:34.856Z,16.40
2017-06-11T03:03:02.319Z,16.40
2017-06-11T03:05:29.781Z,16.30
2017-06-11T03:07:57.230Z,16.30
2017-06-11T03:10:24.694Z,16.20
2017-06-11T03:12:52.136Z,16.20
2017-06-11T03:15:19.599Z,16.20
2017-06-11T03:17:47.053Z,16.20
2017-06-11T03:20:14.552Z,16.20
2017-06-11T03:22:41.991Z,16.20
2017-06-11T03:25:09.486Z,16.20
2017-06-11T03:27:37.856Z,16.20
2017-06-11T03:30:06.610Z,16.20
2017-06-11T03:32:34.084Z,16.10
2017-06-11T03:35:01.589Z,16.10
2017-06-11T03:37:29.065Z,16.10
2017-06-11T03:39:56.515Z,16.10
2017-06-11T03:42:24.079Z,16.00
2017-06-11T03:44:51.550Z,16.00
2017-06-11T03:47:19.023Z,16.00
2017-06-11T03:49:46.865Z,15.90
2017-06-11T03:52:14.320Z,16.00
2017-06-11T03:54:41.780Z,15.90
2017-06-11T03:57:09.239Z,15.90
2017-06-11T03:59:36.727Z,15.90
2017-06-11T04:02:04.619Z,15.90
2017-06-11T04:04:32.617Z,15.90
2017-06-11T04:07:00.152Z,15.90
2017-06-11T04:09:27.686Z,15.90
2017-06-11T04:11:55.688Z,15.90
2017-06-11T04:14:23.213Z,15.90
2017-06-11T04:16:50.712Z,15.90
2017-06-11T04:19:18.226Z,15.90
2017-06-11T04:21:45.723Z,15.90
2017-06-11T04:24:13.290Z,15.90
2017-06-11T04:26:40.783Z,16.00
2017-06-11T04:29:08.324Z,16.00
2017-06-11T04:31:35.924Z,16.00
2017-06-11T04:34:03.463Z,16.00
2017-06-11T04:36:30.966Z,16.00
2017-06-11T04:38:58.499Z,16.10
2017-06-11T04:41:26.061Z,16.10
2017-06-11T04:43:54.015Z,16.20
2017-06-11T04:46:21.562Z,16.20
2017-06-11T04:48:49.140Z,16.20
2017-06-11T04:51:16.635Z,16.30
2017-06-11T04:53:44.444Z,16.40
2017-06-11T04:56:11.923Z,16.40
2017-06-11T04:58:39.379Z,16.40
2017-06-11T05:01:06.995Z,16.50
2017-06-11T05:03:34.548Z,16.60
2017-06-11T05:06:02.055Z,16.70
2017-06-11T05:08:29.579Z,16.80
2017-06-11T05:10:57.500Z,16.90
2017-06-11T05:13:25.003Z,16.90
2017-06-11T05:15:52.517Z,16.90
2017-06-11T05:18:20.025Z,17.00
2017-06-11T05:20:47.499Z,17.10
2017-06-11T05:23:15.062Z,17.20
2017-06-11T05:25:42.572Z,17.30
2017-06-11T05:28:10.063Z,17.30
2017-06-11T05:30:37.514Z,17.40
2017-06-11T05:33:05.013Z,17.50
2017-06-11T05:35:32.584Z,17.60
2017-06-11T05:38:00.097Z,17.70
2017-06-11T05:40:27.609Z,17.80
2017-06-11T05:42:55.105Z,17.90
2017-06-11T05:45:22.603Z,18.00
2017-06-11T05:47:50.110Z,18.10
2017-06-11T05:50:17.637Z,18.20
2017-06-11T05:52:45.141Z,18.30
2017-06-11T05:55:12.978Z,18.40
2017-06-11T05:57:40.476Z,18.50
2017-06-11T06:00:07.990Z,18.60
2017-06-11T06:02:35.462Z,18.60
2017-06-11T06:05:02.944Z,18.70
2017-06-11T06:07:30.427Z,18.90
2017-06-11T06:09:57.919Z,19.00
2017-06-11T06:12:25.420Z,19.10
2017-06-11T06:14:52.933Z,19.20
2017-06-11T06:17:20.548Z,19.30
2017-06-11T06:19:48.430Z,19.50
2017-06-11T06:22:16.748Z,19.60
2017-06-11T06:24:44.785Z,19.60
2017-06-11T06:27:12.249Z,19.70
2017-06-11T06:29:39.982Z,19.90
2017-06-11T06:32:07.475Z,20.00
2017-06-11T06:34:34.950Z,20.10
2017-06-11T06:37:02.420Z,20.10
2017-06-11T06:39:29.937Z,20.20
2017-06-11T06:41:57.402Z,20.30
2017-06-11T06:44:24.901Z,20.40
2017-06-11T06:46:52.352Z,20.40
2017-06-11T06:49:20.221Z,20.70
2017-06-11T06:51:48.737Z,20.80
2017-06-11T06:54:16.247Z,20.80
2017-06-11T06:56:43.725Z,20.90
2017-06-11T06:59:11.619Z,21.10
2017-06-11T07:01:39.116Z,21.10
2017-06-11T07:04:06.584Z,21.20
2017-06-11T07:06:34.050Z,21.30
2017-06-11T07:09:01.547Z,21.40
2017-06-11T07:11:29.003Z,21.40
2017-06-11T07:13:56.488Z,21.50
2017-06-11T07:16:24.425Z,21.60
2017-06-11T07:18:51.922Z,21.60
2017-06-11T07:21:19.383Z,21.70
2017-06-11T07:23:46.851Z,21.80
2017-06-11T07:26:14.336Z,21.90
2017-06-11T07:28:42.525Z,22.00
2017-06-11T07:31:10.012Z,22.00
2017-06-11T07:33:37.470Z,22.10
2017-06-11T07:36:04.936Z,22.20
2017-06-11T07:38:32.383Z,22.30
2017-06-11T07:40:59.869Z,22.40
2017-06-11T07:43:27.311Z,22.50
2017-06-11T07:45:54.784Z,22.60
2017-06-11T07:48:22.276Z,22.60
2017-06-11T07:50:50.086Z,22.70
2017-06-11T07:53:17.545Z,22.80
2017-06-11T07:55:45.013Z,22.90
2017-06-11T07:58:12.620Z,22.90
2017-06-11T08:00:40.089Z,23.00
2017-06-11T08:03:07.963Z,23.10
2017-06-11T08:05:35.835Z,23.10
2017-06-11T08:08:03.319Z,23.10
2017-06-11T08:10:30.780Z,23.20
2017-06-11T08:12:58.253Z,23.30
2017-06-11T08:15:25.728Z,23.40
2017-06-11T08:17:53.226Z,23.50
2017-06-11T08:20:20.696Z,23.50
2017-06-11T08:22:48.161Z,23.60
2017-06-11T08:25:16.052Z,23.80
2017-06-11T08:27:43.909Z,23.90
2017-06-11T08:30:11.788Z,24.00
2017-06-11T08:32:39.861Z,24.00
2017-06-11T08:35:07.352Z,24.10
2017-06-11T08:37:34.828Z,24.10
2017-06-11T08:40:02.345Z,24.20
2017-06-11T08:42:29.815Z,24.30
2017-06-11T08:44:57.656Z,24.40
2017-06-11T08:47:25.131Z,24.40
2017-06-11T08:49:52.588Z,24.50
2017-06-11T08:52:20.062Z,24.60
2017-06-11T08:54:47.915Z,24.80
2017-06-11T08:57:15.497Z,24.80
2017-06-11T08:59:43.864Z,25.00
2017-06-11T09:02:11.375Z,25.00
2017-06-11T09:04:39.138Z,25.10
2017-06-11T09:07:06.646Z,25.30
2017-06-11T09:09:34.113Z,25.30
2017-06-11T09:12:01.647Z,25.40
2017-06-11T09:14:29.103Z,25.50
2017-06-11T09:16:56.800Z,25.70
2017-06-11T09:19:24.280Z,25.80
2017-06-11T09:21:51.736Z,26.00
2017-06-11T09:24:19.212Z,26.20
2017-06-11T09:26:46.670Z,26.50
2017-06-11T09:29:14.156Z,26.70
2017-06-11T09:31:43.079Z,27.20
2017-06-11T09:34:10.558Z,27.20
2017-06-11T09:36:38.084Z,27.50
2017-06-11T09:39:05.540Z,27.80
2017-06-11T09:41:33.014Z,28.20
2017-06-11T09:44:00.463Z,28.50
2017-06-11T09:46:27.954Z,28.90
2017-06-11T09:48:55.418Z,29.40
2017-06-11T09:51:22.901Z,30.00
2017-06-11T09:53:50.369Z,30.50
2017-06-11T09:56:17.971Z,30.90
2017-06-11T09:58:45.532Z,31.50
2017-06-11T10:01:13.386Z,32.40
2017-06-11T10:03:42.175Z,32.40
2017-06-11T10:06:09.633Z,32.60
2017-06-11T10:08:37.125Z,33.10
2017-06-11T10:11:04.617Z,33.50
2017-06-11T10:13:32.116Z,33.70
2017-06-11T10:15:59.587Z,33.90
2017-06-11T10:18:27.161Z,33.90
2017-06-11T10:20:54.661Z,33.70
2017-06-11T10:23:22.161Z,33.20
2017-06-11T10:25:49.665Z,32.70
2017-06-11T10:28:17.171Z,32.10
2017-06-11T10:30:44.650Z,31.50
2017-06-11T10:33:12.129Z,31.10
2017-06-11T10:35:39.602Z,30.60
2017-06-11T10:38:07.092Z,30.30
2017-06-11T10:40:35.561Z,29.90
2017-06-11T10:43:03.433Z,29.30
2017-06-11T10:45:31.883Z,29.10
2017-06-11T10:47:59.363Z,29.10
2017-06-11T10:50:26.823Z,28.70
2017-06-11T10:52:54.396Z,28.50
2017-06-11T10:55:22.295Z,28.20
2017-06-11T10:57:50.181Z,28.20
2017-06-11T11:00:17.691Z,28.20
2017-06-11T11:02:45.167Z,28.10
2017-06-11T11:05:12.699Z,27.90
2017-06-11T11:07:40.662Z,27.80
2017-06-11T11:10:08.167Z,27.70
2017-06-11T11:12:36.148Z,27.60
2017-06-11T11:15:03.638Z,27.60
2017-06-11T11:17:31.181Z,27.60
2017-06-11T11:19:59.061Z,27.40
2017-06-11T11:22:26.579Z,27.40
2017-06-11T11:24:55.368Z,27.40
2017-06-11T11:27:22.871Z,27.40
2017-06-11T11:29:50.367Z,27.40
2017-06-11T11:32:17.885Z,27.40
2017-06-11T11:34:45.758Z,27.40
2017-06-11T11:37:13.237Z,27.40
2017-06-11T11:39:41.184Z,27.40
2017-06-11T11:42:08.675Z,27.40
2017-06-11T11:44:36.279Z,27.40
2017-06-11T11:47:03.814Z,27.50
2017-06-11T11:49:31.356Z,27.60
2017-06-11T11:51:59.225Z,27.70
2017-06-11T11:54:26.691Z,27.70
2017-06-11T11:56:54.575Z,27.80
2017-06-11T11:59:22.061Z,27.80
2017-06-11T12:01:49.566Z,27.80
2017-06-11T12:04:17.038Z,27.80
2017-06-11T12:06:44.630Z,27.80
2017-06-11T12:09:12.163Z,27.80
2017-06-11T12:11:39.670Z,27.80
2017-06-11T12:14:07.134Z,27.90
2017-06-11T12:16:34.641Z,27.90
2017-06-11T12:19:02.113Z,27.90
2017-06-11T12:21:29.582Z,28.00
2017-06-11T12:23:57.051Z,28.00
2017-06-11T12:26:25.055Z,28.00
2017-06-11T12:28:52.523Z,28.00
2017-06-11T12:31:20.013Z,28.00
2017-06-11T12:33:47.544Z,28.00
2017-06-11T12:36:15.066Z,28.00
2017-06-11T12:38:42.583Z,28.00
2017-06-11T12:41:10.080Z,28.10
2017-06-11T12:43:37.577Z,28.10
2017-06-11T12:46:05.066Z,28.20
2017-06-11T12:48:32.587Z,28.20
2017-06-11T12:51:00.235Z,28.20
2017-06-11T12:53:27.755Z,28.30
2017-06-11T12:55:55.332Z,28.30
2017-06-11T12:58:23.542Z,28.30
2017-06-11T13:00:51.066Z,28.30
2017-06-11T13:03:19.324Z,28.40
2017-06-11T13:05:46.847Z,28.40
2017-06-11T13:08:14.466Z,28.50
2017-06-11T13:10:41.971Z,28.60
2017-06-11T13:13:09.494Z,28.70
2017-06-11T13:15:37.006Z,28.70
2017-06-11T13:18:04.497Z,28.70
2017-06-11T13:20:32.973Z,28.80
2017-06-11T13:23:00.881Z,28.80
2017-06-11T13:25:28.443Z,28.80
2017-06-11T13:27:55.989Z,28.80
2017-06-11T13:30:23.881Z,28.90
2017-06-11T13:32:51.399Z,28.90
2017-06-11T13:35:18.906Z,29.00
2017-06-11T13:37:46.581Z,29.00
2017-06-11T13:40:14.063Z,29.00
2017-06-11T13:42:41.576Z,29.10
2017-06-11T13:45:09.059Z,29.10
2017-06-11T13:47:36.673Z,29.10
2017-06-11T13:50:04.767Z,29.20
2017-06-11T13:52:33.587Z,29.20
2017-06-11T13:55:01.228Z,29.30
2017-06-11T13:57:29.104Z,29.40
2017-06-11T13:59:56.672Z,29.40
2017-06-11T14:02:24.615Z,29.40
2017-06-11T14:04:52.159Z,29.50
2017-06-11T14:07:19.636Z,29.50
2017-06-11T14:09:47.159Z,29.50
2017-06-11T14:12:14.653Z,29.60
2017-06-11T14:14:42.193Z,29.70
2017-06-11T14:17:09.703Z,29.80
2017-06-11T14:19:37.595Z,29.90
2017-06-11T14:22:05.129Z,29.90
2017-06-11T14:24:32.646Z,30.00
2017-06-11T14:27:00.150Z,30.10
2017-06-11T14:29:27.669Z,30.20
2017-06-11T14:31:55.218Z,30.20
2017-06-11T14:34:23.069Z,30.20
2017-06-11T14:36:50.633Z,30.20
2017-06-11T14:39:19.251Z,30.20
2017-06-11T14:41:46.934Z,30.20
2017-06-11T14:44:14.496Z,30.30
2017-06-11T14:46:42.205Z,30.30
2017-06-11T14:49:10.012Z,30.30
2017-06-11T14:51:38.159Z,30.30
2017-06-11T14:54:05.903Z,30.40
2017-06-11T14:56:33.498Z,30.30
2017-06-11T14:59:01.068Z,30.30
2017-06-11T15:01:29.166Z,30.10
2017-06-11T15:03:57.141Z,30.10
2017-06-11T15:06:25.048Z,30.10
2017-06-11T15:08:53.163Z,30.00
2017-06-11T15:11:20.995Z,30.00
2017-06-11T15:13:48.581Z,29.90
2017-06-11T15:16:16.195Z,29.90
2017-06-11T15:18:43.955Z,29.80
2017-06-11T15:21:11.638Z,29.80
2017-06-11T15:23:39.203Z,29.80
2017-06-11T15:26:07.706Z,29.80
2017-06-11T15:28:35.311Z,29.70
2017-06-11T15:31:02.989Z,29.70
2017-06-11T15:33:30.979Z,29.60
2017-06-11T15:35:58.902Z,29.60
2017-06-11T15:38:26.540Z,29.60
2017-06-11T15:40:54.144Z,29.50
2017-06-11T15:43:21.994Z,29.50
2017-06-11T15:45:49.560Z,29.50
2017-06-11T15:48:17.086Z,29.50
2017-06-11T15:50:44.638Z,29.50
2017-06-11T15:53:12.618Z,29.40
2017-06-11T15:55:40.234Z,29.40
2017-06-11T15:58:09.491Z,29.30
2017-06-11T16:00:37.531Z,29.20
2017-06-11T16:03:05.176Z,29.20
2017-06-11T16:05:32.764Z,29.20
2017-06-11T16:08:00.301Z,29.20
2017-06-11T16:10:27.992Z,29.10
2017-06-11T16:12:55.646Z,29.00
2017-06-11T16:15:23.201Z,29.00
2017-06-11T16:17:50.843Z,28.90
2017-06-11T16:20:18.421Z,28.90
2017-06-11T16:22:46.024Z,28.80
2017-06-11T16:25:14.213Z,28.80
2017-06-11T16:27:41.780Z,28.80
2017-06-11T16:30:09.925Z,28.70
2017-06-11T16:32:37.559Z,28.70
2017-06-11T16:35:05.643Z,28.70
2017-06-11T16:37:33.369Z,28.70
2017-06-11T16:40:01.683Z,28.70
2017-06-11T16:42:33.183Z,28.70
2017-06-11T16:45:04.279Z,28.70
2017-06-11T16:47:33.599Z,28.70
2017-06-11T16:50:02.988Z,28.70
2017-06-11T16:52:32.762Z,28.70
2017-06-11T16:57:58.093Z,28.70
2017-06-11T17:00:25.610Z,28.70
2017-06-11T17:02:53.051Z,28.70
2017-06-11T17:05:21.207Z,28.70
2017-06-11T17:07:49.043Z,28.70
2017-06-11T17:10:16.508Z,28.70
2017-06-11T17:12:43.969Z,28.70
2017-06-11T17:15:11.425Z,28.70
2017-06-11T17:17:38.884Z,28.70
2017-06-11T17:20:06.328Z,28.70
2017-06-11T17:22:33.822Z,28.70
2017-06-11T17:25:01.316Z,28.70
2017-06-11T17:27:29.644Z,28.60
2017-06-11T17:29:57.103Z,28.60
2017-06-11T17:32:24.576Z,28.60
2017-06-11T17:34:52.033Z,28.60
2017-06-11T17:37:19.511Z,28.60
2017-06-11T17:39:46.993Z,28.50
2017-06-11T17:42:14.434Z,28.50
2017-06-11T17:44:42.819Z,28.40
2017-06-11T17:47:10.312Z,28.40
2017-06-11T17:49:37.792Z,28.40
2017-06-11T17:52:05.255Z,28.30
2017-06-11T17:54:34.369Z,28.30
2017-06-11T17:57:01.842Z,28.30
2017-06-11T17:59:29.444Z,28.30
2017-06-11T18:01:56.959Z,28.30
2017-06-11T18:04:24.469Z,28.20
2017-06-11T18:06:52.017Z,28.20
2017-06-11T18:09:19.574Z,28.20
2017-06-11T18:11:47.018Z,28.20
2017-06-11T18:14:14.481Z,28.20
2017-06-11T18:16:41.944Z,28.10
2017-06-11T18:19:10.243Z,28.10
2017-06-11T18:21:37.911Z,28.10
2017-06-11T18:24:05.483Z,28.00
2017-06-11T18:26:33.015Z,28.00
2017-06-11T18:29:00.494Z,28.00
2017-06-11T18:31:28.630Z,27.90
2017-06-11T18:33:56.270Z,27.90
2017-06-11T18:36:23.765Z,27.90
2017-06-11T18:38:52.507Z,27.80
2017-06-11T18:41:20.829Z,27.90
2017-06-11T18:43:48.326Z,27.80
2017-06-11T18:46:15.960Z,27.80
2017-06-11T18:48:43.928Z,27.70
2017-06-11T18:51:11.478Z,27.70
2017-06-11T18:53:39.309Z,27.70
2017-06-11T18:56:06.776Z,27.60
2017-06-11T18:58:34.306Z,27.50
2017-06-11T19:01:01.853Z,27.50
2017-06-11T19:03:29.859Z,27.40
2017-06-11T19:05:57.333Z,27.40
2017-06-11T19:08:24.858Z,27.40
2017-06-11T19:10:52.562Z,27.40
2017-06-11T19:13:20.050Z,27.30
2017-06-11T19:15:47.500Z,27.30
2017-06-11T19:18:14.960Z,27.30
2017-06-11T19:20:42.438Z,27.20
2017-06-11T19:23:09.907Z,27.20
2017-06-11T19:25:37.366Z,27.10
2017-06-11T19:28:05.789Z,27.10
2017-06-11T19:30:33.290Z,27.10
2017-06-11T19:33:00.772Z,27.00
2017-06-11T19:35:28.239Z,27.00
2017-06-11T19:37:55.741Z,27.00
2017-06-11T19:40:23.770Z,26.90
2017-06-11T19:42:51.315Z,26.90
2017-06-11T19:45:18.780Z,26.90
2017-06-11T19:47:48.287Z,26.80
2017-06-11T19:50:15.745Z,26.80
2017-06-11T19:52:43.265Z,26.70
2017-06-11T19:55:11.539Z,26.70
2017-06-11T19:57:43.325Z,26.60
2017-06-11T20:00:11.996Z,26.60
2017-06-11T20:02:39.458Z,26.60
2017-06-11T20:05:06.918Z,26.60
2017-06-11T20:07:34.384Z,26.50
2017-06-11T20:10:01.864Z,26.50
2017-06-11T20:12:29.383Z,26.50
2017-06-11T20:14:56.851Z,26.40
2017-06-11T20:17:24.316Z,26.40
2017-06-11T20:19:51.862Z,26.30
2017-06-11T20:22:19.338Z,26.30
2017-06-11T20:24:46.949Z,26.20
2017-06-11T20:27:14.396Z,26.20
2017-06-11T20:29:41.856Z,26.10
2017-06-11T20:32:09.311Z,26.10
2017-06-11T20:34:36.775Z,26.00
2017-06-11T20:37:04.209Z,25.90
2017-06-11T20:39:31.681Z,25.90
2017-06-11T20:41:59.123Z,25.80
2017-06-11T20:44:27.451Z,25.70
2017-06-11T20:46:54.913Z,25.70
2017-06-11T20:49:23.221Z,25.60
2017-06-11T20:51:50.724Z,25.50
2017-06-11T20:54:18.872Z,25.50
2017-06-11T20:56:47.563Z,25.40
2017-06-11T20:59:15.007Z,25.30
2017-06-11T21:01:42.860Z,25.20
2017-06-11T21:04:11.614Z,25.20
2017-06-11T21:06:39.082Z,25.20
2017-06-11T21:09:06.578Z,25.10
2017-06-11T21:11:34.316Z,25.00
2017-06-11T21:14:01.758Z,25.00
2017-06-11T21:16:29.975Z,25.00
2017-06-11T21:38:59.178Z,24.20
2017-06-11T21:41:26.893Z,24.20
2017-06-11T21:43:54.420Z,24.10
2017-06-11T21:46:21.896Z,24.10
2017-06-11T21:48:50.551Z,24.00
2017-06-11T21:51:18.083Z,24.00
2017-06-11T21:53:45.562Z,23.90
2017-06-11T21:56:13.470Z,23.80
2017-06-11T21:58:40.944Z,23.80
2017-06-11T22:01:08.391Z,23.80
2017-06-11T22:03:35.944Z,23.80
2017-06-11T22:06:03.402Z,23.70
2017-06-11T22:08:31.244Z,23.60
2017-06-11T22:10:59.659Z,23.60
2017-06-11T22:13:27.116Z,23.60
2017-06-11T22:15:54.825Z,23.50
2017-06-11T22:18:22.291Z,23.50
2017-06-11T22:52:08.692Z,23.20
2017-06-11T22:54:36.217Z,23.20
2017-06-11T22:57:03.690Z,23.20
2017-06-11T22:59:31.670Z,23.20
2017-06-11T23:01:59.157Z,23.20
2017-06-11T23:04:26.628Z,23.20
2017-06-11T23:06:54.284Z,23.20
2017-06-11T23:09:21.753Z,23.20
2017-06-11T23:11:49.227Z,23.20
2017-06-11T23:14:17.342Z,23.20
2017-06-11T23:16:44.799Z,23.20
2017-06-11T23:19:12.329Z,23.20
2017-06-11T23:21:40.199Z,23.20
2017-06-11T23:24:07.728Z,23.20
2017-06-11T23:26:35.258Z,23.20
2017-06-11T23:29:02.728Z,23.30
2017-06-11T23:31:30.268Z,23.20
2017-06-11T23:33:57.901Z,23.20
2017-06-11T23:36:25.373Z,23.20
2017-06-11T23:38:53.754Z,23.20
2017-06-11T23:41:21.264Z,23.10
2017-06-11T23:43:48.733Z,23.00
2017-06-11T23:46:16.200Z,22.90
2017-06-11T23:48:43.682Z,22.90
2017-06-11T23:51:11.152Z,22.80
2017-06-11T23:53:38.696Z,22.80
2017-06-11T23:56:06.163Z,22.70
2017-06-11T23:58:33.627Z,22.70
